Andrews Air Force Base Camp Springs US
ICAO: KADW
IATA: ADW
Category: Large
Scheduled Services: No

Elevation: 280 ft
TransAlt. 18000 ft.

Airport Communications:
POTOMAC APP:119.3
ATIS:113.1
CLNC DEL:127.55
POTOMAC DEP:125.65
GND:121.8
AFRC OPS:143.8
PMSV METRO:34.46
COMD POST:141.55
PTD:139.3
TWR:118.4

KADW Zoom In..

Runways:

(A) RW 01L length 9318 ft width 200 ft
ILS 111.50 / hdg 10

(B) RW 01R length 9756 ft width 150 ft
ILS 110.50 / hdg 10

(C) RW 19L length 9756 ft width 150 ft
ILS 110.50 / hdg 190

(D) RW 19R length 9318 ft width 200 ft
ILS 111.50 / hdg 190

Location; KADW
Day. 22 / Time. 23.56 Zulu
* Altimeter: 30.01
* Temperature: 14° c. 57.2°f.
* Wind from: 150° Speed 08 kn.
Dewpoint: 06° c.
Visibility: 10 Statute Miles.
Clouds: Clear (automated report).

KADW 222356Z AUTO 15008KT 10SM CLR 14/06 A3001 RMK AO2 SLP169 T01390060 10191 20139 57005


Wind From 150°
Speed 08 kn.

YouTube Music Video
 
jpsmedia.com for Web Design  worldairports.se 2018   terms of use